createdAt,value
2022-11-24T00:01:25.686Z,95.80
2022-11-24T00:03:58.601Z,95.80
2022-11-24T00:06:26.118Z,95.80
2022-11-24T00:08:53.889Z,95.80
2022-11-24T00:11:23.197Z,95.80
2022-11-24T00:13:50.766Z,95.80
2022-11-24T00:16:25.894Z,95.80
2022-11-24T00:18:55.056Z,95.80
2022-11-24T00:21:22.570Z,95.80
2022-11-24T00:23:49.927Z,95.80
2022-11-24T00:26:18.860Z,95.80
2022-11-24T00:28:47.653Z,95.80
2022-11-24T00:31:20.668Z,95.80
2022-11-24T00:33:49.005Z,95.80
2022-11-24T00:36:16.892Z,95.70
2022-11-24T00:38:45.152Z,95.80
2022-11-24T00:41:12.292Z,95.80
2022-11-24T00:43:39.038Z,95.80
2022-11-24T00:46:06.235Z,95.80
2022-11-24T00:48:33.115Z,95.80
2022-11-24T00:51:06.250Z,95.80
2022-11-24T00:53:33.589Z,95.70
2022-11-24T00:56:00.811Z,95.70
2022-11-24T00:58:27.522Z,95.70
2022-11-24T01:00:54.357Z,95.70
2022-11-24T01:03:22.064Z,95.70
2022-11-24T01:05:49.094Z,95.80
2022-11-24T01:08:15.998Z,95.80
2022-11-24T01:10:42.780Z,95.80
2022-11-24T01:13:09.588Z,95.80
2022-11-24T01:15:36.830Z,95.80
2022-11-24T01:18:04.437Z,95.80
2022-11-24T01:20:31.578Z,95.70
2022-11-24T01:22:58.336Z,95.70
2022-11-24T01:25:25.092Z,95.80
2022-11-24T01:27:51.875Z,95.70
2022-11-24T01:30:18.678Z,95.70
2022-11-24T01:32:45.427Z,95.80
2022-11-24T01:35:12.135Z,95.80
2022-11-24T01:37:38.882Z,95.70
2022-11-24T01:40:06.340Z,95.70
2022-11-24T01:42:52.581Z,95.70
2022-11-24T01:45:41.757Z,95.70
2022-11-24T01:48:25.886Z,95.70
2022-11-24T01:51:02.163Z,95.80
2022-11-24T01:53:28.965Z,95.70
2022-11-24T01:55:55.938Z,95.70
2022-11-24T01:58:27.079Z,95.70
2022-11-24T02:00:54.236Z,95.70
2022-11-24T02:03:25.768Z,95.80
2022-11-24T02:06:12.196Z,95.70
2022-11-24T02:08:54.992Z,95.70
2022-11-24T02:11:24.069Z,95.70
2022-11-24T02:13:53.424Z,95.70
2022-11-24T02:16:20.576Z,95.70
2022-11-24T02:18:47.606Z,95.70
2022-11-24T02:21:19.310Z,95.70
2022-11-24T02:24:15.936Z,95.70
2022-11-24T02:26:48.348Z,95.70
2022-11-24T02:29:15.713Z,95.70
2022-11-24T02:31:47.567Z,95.70
2022-11-24T02:34:14.247Z,95.70
2022-11-24T02:36:40.977Z,95.70
2022-11-24T02:39:15.136Z,95.70
2022-11-24T02:42:08.084Z,95.70
2022-11-24T02:44:42.846Z,95.70
2022-11-24T02:47:12.502Z,95.70
2022-11-24T02:49:39.598Z,95.70
2022-11-24T02:52:07.050Z,95.70
2022-11-24T02:54:34.090Z,95.70
2022-11-24T02:57:01.150Z,95.70
2022-11-24T02:59:27.862Z,95.70
2022-11-24T03:01:54.607Z,95.70
2022-11-24T03:04:21.649Z,95.70
2022-11-24T03:06:48.383Z,95.70
2022-11-24T03:09:15.090Z,95.70
2022-11-24T03:11:41.810Z,95.70
2022-11-24T03:14:08.941Z,95.70
2022-11-24T03:16:35.920Z,95.70
2022-11-24T03:19:02.696Z,95.70
2022-11-24T03:21:29.456Z,95.70
2022-11-24T03:23:56.182Z,95.70
2022-11-24T03:26:24.323Z,95.60
2022-11-24T03:28:55.127Z,95.60
2022-11-24T03:31:22.970Z,95.60
2022-11-24T03:33:49.782Z,95.60
2022-11-24T03:36:16.822Z,95.60
2022-11-24T03:38:44.032Z,95.60
2022-11-24T03:41:10.949Z,95.60
2022-11-24T03:43:43.263Z,95.60
2022-11-24T03:46:11.098Z,95.60
2022-11-24T03:48:37.961Z,95.60
2022-11-24T03:51:07.250Z,95.60
2022-11-24T03:53:34.033Z,95.60
2022-11-24T03:56:02.013Z,95.60
2022-11-24T03:58:29.604Z,95.60
2022-11-24T04:00:56.525Z,95.60
2022-11-24T04:03:23.770Z,95.60
2022-11-24T04:05:51.099Z,95.60
2022-11-24T04:08:18.632Z,95.60
2022-11-24T04:10:48.890Z,95.60
2022-11-24T04:13:21.126Z,95.60
2022-11-24T04:15:48.055Z,95.60
2022-11-24T04:18:15.177Z,95.60
2022-11-24T04:20:42.666Z,95.60
2022-11-24T04:23:10.104Z,95.60
2022-11-24T04:25:37.159Z,95.60
2022-11-24T04:28:04.417Z,95.60
2022-11-24T04:30:31.509Z,95.50
2022-11-24T04:32:58.363Z,95.60
2022-11-24T04:35:25.278Z,95.50
2022-11-24T04:37:52.042Z,95.50
2022-11-24T04:40:19.964Z,95.50
2022-11-24T04:42:56.770Z,95.50
2022-11-24T04:45:24.423Z,95.50
2022-11-24T04:47:51.211Z,95.50
2022-11-24T04:50:18.098Z,95.50
2022-11-24T04:52:45.043Z,95.50
2022-11-24T04:55:11.988Z,95.50
2022-11-24T04:57:38.886Z,95.50
2022-11-24T05:00:06.507Z,95.50
2022-11-24T05:02:33.208Z,95.50
2022-11-24T05:04:59.924Z,95.50
2022-11-24T05:07:26.798Z,95.50
2022-11-24T05:10:12.067Z,95.50
2022-11-24T05:12:39.516Z,95.50
2022-11-24T05:15:07.316Z,95.50
2022-11-24T05:17:38.756Z,95.50
2022-11-24T05:20:06.997Z,95.50
2022-11-24T05:22:33.768Z,95.50
2022-11-24T05:25:00.543Z,95.50
2022-11-24T05:27:27.346Z,95.50
2022-11-24T05:29:54.116Z,95.50
2022-11-24T05:32:20.975Z,95.50
2022-11-24T05:34:48.013Z,95.50
2022-11-24T05:37:14.806Z,95.50
2022-11-24T05:39:41.538Z,95.50
2022-11-24T05:42:27.567Z,95.50
2022-11-24T05:44:54.336Z,95.50
2022-11-24T05:47:21.541Z,95.50
2022-11-24T05:49:48.354Z,95.50
2022-11-24T05:52:16.172Z,95.50
2022-11-24T05:54:42.946Z,95.50
2022-11-24T05:57:12.282Z,95.50
2022-11-24T05:59:39.141Z,95.40
2022-11-24T06:02:06.061Z,95.40
2022-11-24T06:04:33.281Z,95.40
2022-11-24T06:07:00.246Z,95.40
2022-11-24T06:09:27.073Z,95.40
2022-11-24T06:11:53.822Z,95.40
2022-11-24T06:14:20.824Z,95.40
2022-11-24T06:16:47.644Z,95.40
2022-11-24T06:19:14.361Z,95.30
2022-11-24T06:21:41.280Z,95.30
2022-11-24T06:24:08.317Z,95.30
2022-11-24T06:26:35.114Z,95.30
2022-11-24T06:29:02.026Z,95.30
2022-11-24T06:31:28.856Z,95.30
2022-11-24T06:33:55.805Z,95.30
2022-11-24T06:36:22.760Z,95.30
2022-11-24T06:38:49.485Z,95.30
2022-11-24T06:41:17.363Z,95.30
2022-11-24T06:43:44.957Z,95.20
2022-11-24T06:46:12.968Z,95.20
2022-11-24T06:48:39.781Z,95.20
2022-11-24T06:51:09.066Z,95.20
2022-11-24T06:53:37.986Z,95.30
2022-11-24T06:56:09.455Z,95.30
2022-11-24T06:58:51.098Z,95.30
2022-11-24T07:01:29.036Z,95.30
2022-11-24T07:03:57.026Z,95.30
2022-11-24T07:06:25.539Z,95.30
2022-11-24T07:08:53.273Z,95.30
2022-11-24T07:11:23.136Z,95.30
2022-11-24T07:13:56.542Z,95.30
2022-11-24T07:16:27.422Z,95.30
2022-11-24T07:18:55.032Z,95.30
2022-11-24T07:21:23.618Z,95.30
2022-11-24T07:23:52.024Z,95.30
2022-11-24T07:26:19.349Z,95.30
2022-11-24T07:28:46.452Z,95.30
2022-11-24T07:31:19.287Z,95.30
2022-11-24T07:33:53.801Z,95.40
2022-11-24T07:36:21.462Z,95.30
2022-11-24T07:38:48.539Z,95.30
2022-11-24T07:41:17.093Z,95.30
2022-11-24T07:43:43.893Z,95.30
2022-11-24T07:46:13.554Z,95.40
2022-11-24T07:48:40.869Z,95.40
2022-11-24T07:51:08.054Z,95.40
2022-11-24T07:53:35.322Z,95.40
2022-11-24T07:56:04.068Z,95.40
2022-11-24T07:58:33.429Z,95.40
2022-11-24T08:01:01.140Z,95.50
2022-11-24T08:03:28.113Z,95.50
2022-11-24T08:08:47.177Z,95.50
2022-11-24T08:11:17.385Z,95.50
2022-11-24T08:13:44.497Z,95.50
2022-11-24T08:16:14.942Z,95.60
2022-11-24T08:18:42.874Z,95.60
2022-11-24T08:21:14.220Z,95.60
2022-11-24T08:23:41.395Z,95.60
2022-11-24T08:26:13.617Z,95.60
2022-11-24T08:28:40.389Z,95.60
2022-11-24T08:31:09.471Z,95.60
2022-11-24T08:33:36.754Z,95.60
2022-11-24T08:36:05.770Z,95.60
2022-11-24T08:38:32.532Z,95.60
2022-11-24T08:41:05.145Z,95.60
2022-11-24T08:43:32.756Z,95.60
2022-11-24T08:46:04.963Z,95.60
2022-11-24T08:48:31.811Z,95.60
2022-11-24T08:50:59.174Z,95.60
2022-11-24T08:53:26.124Z,95.70
2022-11-24T08:55:52.849Z,95.70
2022-11-24T08:58:20.643Z,95.70
2022-11-24T09:00:47.368Z,95.70
2022-11-24T09:03:14.129Z,95.70
2022-11-24T09:05:51.844Z,95.70
2022-11-24T09:08:19.499Z,95.70
2022-11-24T09:10:46.781Z,95.70
2022-11-24T09:13:13.570Z,95.70
2022-11-24T09:15:40.364Z,95.70
2022-11-24T09:18:07.135Z,95.70
2022-11-24T09:20:33.925Z,95.70
2022-11-24T09:23:00.698Z,95.70
2022-11-24T09:25:27.508Z,95.70
2022-11-24T09:27:54.825Z,95.80
2022-11-24T09:30:23.172Z,95.80
2022-11-24T09:32:49.898Z,95.80
2022-11-24T09:35:16.852Z,95.80
2022-11-24T09:37:45.718Z,95.80
2022-11-24T09:40:14.466Z,95.80
2022-11-24T09:43:12.577Z,95.80
2022-11-24T09:46:18.952Z,95.80
2022-11-24T09:48:49.542Z,95.80
2022-11-24T09:51:16.892Z,95.80
2022-11-24T09:54:06.154Z,95.80
2022-11-24T09:56:35.608Z,95.80
2022-11-24T09:59:35.248Z,95.80
2022-11-24T10:02:02.236Z,95.80
2022-11-24T10:04:34.066Z,95.80
2022-11-24T10:07:20.257Z,95.80
2022-11-24T10:09:52.754Z,95.80
2022-11-24T10:12:46.817Z,95.80
2022-11-24T10:15:25.379Z,95.80
2022-11-24T10:18:21.686Z,95.90
2022-11-24T10:21:29.680Z,95.90
2022-11-24T10:24:23.828Z,95.80
2022-11-24T10:26:59.906Z,95.90
2022-11-24T10:29:42.063Z,95.90
2022-11-24T10:32:30.550Z,95.90
2022-11-24T10:35:02.834Z,95.90
2022-11-24T10:37:37.448Z,91.20
2022-11-24T10:40:55.421Z,91.20
2022-11-24T10:43:12.976Z,91.20
2022-11-24T10:45:40.452Z,91.20
2022-11-24T10:48:20.113Z,95.80
2022-11-24T10:50:47.080Z,95.80
2022-11-24T10:53:16.445Z,95.80
2022-11-24T10:55:55.239Z,95.80
2022-11-24T10:58:28.769Z,95.80
2022-11-24T11:01:20.590Z,95.80
2022-11-24T11:03:50.965Z,95.80
2022-11-24T11:06:32.675Z,91.20
2022-11-24T11:09:08.421Z,95.80
2022-11-24T11:11:36.687Z,91.20
2022-11-24T11:14:05.576Z,91.20
2022-11-24T11:16:41.187Z,91.20
2022-11-24T11:19:54.152Z,91.20
2022-11-24T11:22:26.989Z,91.20
2022-11-24T11:25:24.864Z,91.20
2022-11-24T11:27:51.775Z,91.30
2022-11-24T11:36:11.398Z,91.30
2022-11-24T11:38:40.271Z,91.30
2022-11-24T11:41:16.318Z,91.20
2022-11-24T11:43:45.770Z,91.30
2022-11-24T11:46:16.855Z,91.20
2022-11-24T11:48:47.934Z,91.20
2022-11-24T11:51:52.064Z,91.20
2022-11-24T11:54:35.313Z,91.20
2022-11-24T11:57:05.310Z,91.20
2022-11-24T12:00:10.193Z,91.30
2022-11-24T12:02:53.652Z,91.30
2022-11-24T12:05:24.058Z,91.30
2022-11-24T12:08:23.274Z,91.30
2022-11-24T12:11:23.990Z,91.30
2022-11-24T12:13:59.835Z,91.30
2022-11-24T12:16:32.429Z,91.30
2022-11-24T12:19:18.077Z,91.20
2022-11-24T12:22:03.131Z,91.20
2022-11-24T12:24:48.457Z,91.20
2022-11-24T12:27:40.125Z,91.20
2022-11-24T12:30:16.691Z,91.20
2022-11-24T12:33:01.136Z,91.30
2022-11-24T12:35:31.328Z,91.30
2022-11-24T12:38:23.081Z,91.30
2022-11-24T12:43:58.109Z,91.30
2022-11-24T12:46:36.468Z,91.30
2022-11-24T12:49:19.048Z,91.20
2022-11-24T12:51:51.309Z,91.10
2022-11-24T12:54:20.468Z,91.00
2022-11-24T12:56:57.968Z,91.00
2022-11-24T13:00:02.896Z,91.00
2022-11-24T13:02:49.624Z,90.90
2022-11-24T13:05:42.550Z,90.80
2022-11-24T13:08:09.419Z,90.80
2022-11-24T13:13:47.957Z,90.70
2022-11-24T13:19:23.995Z,90.60
2022-11-24T13:22:01.654Z,90.70
2022-11-24T13:24:31.254Z,91.00
2022-11-24T13:27:16.284Z,90.90
2022-11-24T13:29:47.387Z,90.70
2022-11-24T13:32:21.112Z,90.40
2022-11-24T13:34:49.802Z,90.20
2022-11-24T13:37:29.080Z,86.60
2022-11-24T13:40:14.542Z,70.80
2022-11-24T13:42:56.292Z,63.40
2022-11-24T13:45:49.612Z,46.50
2022-11-24T13:48:19.752Z,48.10
2022-11-24T13:50:56.160Z,62.80
2022-11-24T13:53:32.089Z,71.50
2022-11-24T13:56:00.105Z,73.10
2022-11-24T13:58:36.904Z,63.50
2022-11-24T14:01:12.613Z,38.30
2022-11-24T14:04:28.606Z,60.70
2022-11-24T14:06:48.079Z,64.70
2022-11-24T14:09:39.458Z,67.50
2022-11-24T14:12:13.846Z,72.70
2022-11-24T14:14:41.554Z,73.70
2022-11-24T14:17:14.308Z,80.00
2022-11-24T14:19:42.787Z,82.60
2022-11-24T14:22:17.204Z,83.40
2022-11-24T14:24:45.516Z,84.60
2022-11-24T14:27:16.503Z,82.90
2022-11-24T14:30:26.213Z,82.30
2022-11-24T14:33:03.506Z,81.70
2022-11-24T14:35:31.375Z,80.20
2022-11-24T14:37:59.325Z,82.10
2022-11-24T14:40:50.219Z,84.10
2022-11-24T14:43:43.384Z,83.80
2022-11-24T14:46:17.781Z,85.20
2022-11-24T14:48:52.663Z,86.30
2022-11-24T14:51:25.650Z,88.20
2022-11-24T14:53:56.380Z,88.70
2022-11-24T14:56:27.743Z,88.40
2022-11-24T14:58:56.158Z,88.20
2022-11-24T15:01:29.151Z,88.60
2022-11-24T15:04:39.361Z,89.30
2022-11-24T15:07:16.574Z,89.80
2022-11-24T15:09:51.850Z,90.00
2022-11-24T15:12:33.885Z,90.30
2022-11-24T15:15:22.924Z,90.40
2022-11-24T15:17:58.221Z,90.50
2022-11-24T15:20:24.934Z,90.50
2022-11-24T15:23:11.668Z,90.50
2022-11-24T15:25:39.214Z,90.60
2022-11-24T15:28:05.975Z,90.60
2022-11-24T15:30:35.386Z,90.70
2022-11-24T15:33:02.789Z,90.70
2022-11-24T15:35:31.584Z,90.60
2022-11-24T15:37:59.035Z,90.60
2022-11-24T15:40:25.855Z,90.70
2022-11-24T15:42:55.366Z,90.70
2022-11-24T15:45:24.741Z,95.20
2022-11-24T15:47:51.669Z,95.20
2022-11-24T15:50:19.425Z,95.20
2022-11-24T15:52:47.553Z,95.20
2022-11-24T15:55:23.427Z,95.10
2022-11-24T15:57:50.317Z,95.20
2022-11-24T16:00:19.871Z,95.20
2022-11-24T16:02:47.043Z,95.30
2022-11-24T16:05:14.814Z,95.30
2022-11-24T16:07:42.052Z,95.30
2022-11-24T16:10:29.369Z,95.30
2022-11-24T16:12:56.109Z,95.40
2022-11-24T16:15:22.973Z,95.40
2022-11-24T16:17:49.772Z,95.40
2022-11-24T16:20:16.853Z,95.40
2022-11-24T16:22:43.909Z,95.40
2022-11-24T16:25:11.186Z,95.40
2022-11-24T16:27:37.967Z,95.40
2022-11-24T16:30:06.164Z,95.40
2022-11-24T16:32:33.283Z,95.40
2022-11-24T16:35:00.034Z,95.40
2022-11-24T16:37:26.774Z,95.40
2022-11-24T16:39:53.452Z,95.40
2022-11-24T16:42:20.300Z,95.40
2022-11-24T16:44:47.022Z,95.50
2022-11-24T16:47:13.982Z,95.50
2022-11-24T16:49:40.787Z,95.40
2022-11-24T16:52:08.499Z,95.40
2022-11-24T16:54:35.413Z,95.40
2022-11-24T16:57:02.334Z,95.40
2022-11-24T16:59:29.381Z,95.40
2022-11-24T17:01:56.160Z,95.40
2022-11-24T17:04:23.018Z,95.40
2022-11-24T17:06:49.757Z,95.40
2022-11-24T17:09:16.938Z,95.30
2022-11-24T17:11:43.675Z,95.30
2022-11-24T17:14:11.280Z,95.30
2022-11-24T17:16:38.552Z,95.30
2022-11-24T17:19:05.848Z,95.20
2022-11-24T17:21:33.019Z,95.20
2022-11-24T17:24:05.460Z,95.20
2022-11-24T17:26:33.544Z,95.20
2022-11-24T17:29:00.366Z,95.20
2022-11-24T17:31:32.656Z,95.20
2022-11-24T17:34:00.596Z,95.10
2022-11-24T17:36:29.551Z,95.10
2022-11-24T17:38:56.402Z,95.10
2022-11-24T17:41:23.290Z,95.00
2022-11-24T17:43:55.762Z,95.00
2022-11-24T17:46:23.855Z,94.90
2022-11-24T17:48:50.966Z,94.90
2022-11-24T17:51:19.738Z,94.90
2022-11-24T17:53:49.291Z,94.80
2022-11-24T17:56:18.701Z,94.80
2022-11-24T17:58:45.683Z,94.80
2022-11-24T18:01:13.436Z,94.80
2022-11-24T18:03:40.735Z,94.80
2022-11-24T18:06:09.419Z,94.80
2022-11-24T18:08:37.209Z,94.90
2022-11-24T18:11:08.838Z,94.90
2022-11-24T18:13:55.710Z,94.80
2022-11-24T18:16:24.462Z,94.80
2022-11-24T18:19:14.070Z,94.80
2022-11-24T18:21:43.672Z,94.70
2022-11-24T18:24:11.696Z,94.70
2022-11-24T18:26:39.468Z,94.70
2022-11-24T18:29:06.286Z,94.70
2022-11-24T18:31:35.303Z,94.70
2022-11-24T18:34:04.264Z,94.70
2022-11-24T18:36:31.637Z,94.70
2022-11-24T18:39:05.826Z,94.60
2022-11-24T18:41:32.918Z,94.60
2022-11-24T18:44:02.993Z,94.60
2022-11-24T18:46:29.860Z,94.60
2022-11-24T18:48:56.793Z,94.60
2022-11-24T18:51:23.664Z,94.60
2022-11-24T18:53:58.075Z,94.60
2022-11-24T18:56:25.900Z,94.60
2022-11-24T18:58:54.118Z,94.60
2022-11-24T19:01:23.896Z,94.50
2022-11-24T19:03:53.985Z,94.50
2022-11-24T19:06:35.166Z,94.50
2022-11-24T19:09:05.663Z,94.50
2022-11-24T19:11:36.090Z,94.50
2022-11-24T19:14:08.860Z,94.40
2022-11-24T19:16:36.044Z,94.40
2022-11-24T19:19:03.666Z,94.40
2022-11-24T19:21:32.683Z,94.40
2022-11-24T19:24:04.480Z,94.30
2022-11-24T19:26:32.235Z,94.30
2022-11-24T19:28:59.050Z,94.30
2022-11-24T19:31:25.822Z,94.30
2022-11-24T19:33:54.626Z,94.40
2022-11-24T19:36:22.304Z,94.40
2022-11-24T19:38:51.437Z,94.40
2022-11-24T19:41:19.727Z,94.30
2022-11-24T19:43:47.184Z,94.30
2022-11-24T19:46:16.014Z,94.30
2022-11-24T19:48:49.991Z,94.30
2022-11-24T19:51:19.256Z,94.30
2022-11-24T19:53:46.604Z,94.20
2022-11-24T19:56:21.648Z,94.20
2022-11-24T19:58:49.273Z,94.30
2022-11-24T20:01:18.302Z,94.30
2022-11-24T20:03:46.740Z,94.30
2022-11-24T20:06:14.944Z,94.30
2022-11-24T20:08:42.542Z,94.30
2022-11-24T20:11:12.573Z,94.30
2022-11-24T20:13:41.112Z,94.30
2022-11-24T20:16:17.576Z,94.30
2022-11-24T20:18:46.344Z,94.30
2022-11-24T20:21:15.867Z,94.30
2022-11-24T20:23:43.374Z,94.30
2022-11-24T20:26:13.079Z,94.30
2022-11-24T20:28:40.498Z,94.30
2022-11-24T20:31:11.109Z,94.30
2022-11-24T20:33:38.347Z,94.30
2022-11-24T20:36:13.899Z,94.30
2022-11-24T20:38:42.405Z,94.30
2022-11-24T20:41:18.061Z,94.20
2022-11-24T20:43:45.541Z,94.20
2022-11-24T20:46:18.860Z,94.30
2022-11-24T20:48:46.427Z,94.30
2022-11-24T20:51:18.821Z,94.30
2022-11-24T20:53:45.590Z,94.30
2022-11-24T20:56:15.859Z,94.30
2022-11-24T20:58:42.962Z,94.30
2022-11-24T21:01:12.736Z,94.30
2022-11-24T21:03:43.342Z,94.30
2022-11-24T21:06:12.032Z,94.30
2022-11-24T21:08:40.473Z,94.30
2022-11-24T21:11:09.255Z,94.40
2022-11-24T21:13:37.160Z,94.40
2022-11-24T21:16:14.156Z,94.40
2022-11-24T21:18:41.263Z,94.40
2022-11-24T21:21:08.057Z,94.40
2022-11-24T21:23:34.811Z,94.40
2022-11-24T21:26:05.517Z,94.40
2022-11-24T21:28:33.706Z,94.40
2022-11-24T21:31:12.220Z,94.40
2022-11-24T21:33:44.894Z,94.30
2022-11-24T21:36:14.689Z,94.30
2022-11-24T21:38:45.401Z,94.40
2022-11-24T21:41:13.984Z,94.40
2022-11-24T21:43:40.814Z,94.40
2022-11-24T21:46:10.760Z,94.40
2022-11-24T21:48:38.795Z,94.40
2022-11-24T21:51:07.744Z,94.30
2022-11-24T21:53:36.299Z,94.30
2022-11-24T21:56:05.760Z,94.30
2022-11-24T21:58:33.540Z,94.30
2022-11-24T22:01:05.775Z,94.30
2022-11-24T22:03:32.524Z,94.40
2022-11-24T22:06:00.432Z,94.40
2022-11-24T22:08:29.378Z,94.40
2022-11-24T22:11:28.326Z,94.30
2022-11-24T22:13:55.114Z,94.30
2022-11-24T22:16:24.078Z,94.40
2022-11-24T22:18:51.376Z,94.40
2022-11-24T22:21:23.510Z,94.40
2022-11-24T22:23:53.567Z,94.40
2022-11-24T22:26:22.428Z,94.40
2022-11-24T22:28:49.715Z,94.30
2022-11-24T22:31:36.796Z,94.40
2022-11-24T22:34:03.674Z,94.40
2022-11-24T22:36:30.822Z,94.40
2022-11-24T22:39:02.942Z,94.40
2022-11-24T22:41:30.990Z,94.40
2022-11-24T22:43:57.801Z,94.50
2022-11-24T22:46:26.751Z,94.50
2022-11-24T22:48:54.879Z,94.50
2022-11-24T22:51:26.896Z,94.50
2022-11-24T22:53:56.650Z,94.40
2022-11-24T22:56:24.498Z,94.40
2022-11-24T22:58:51.319Z,94.50
2022-11-24T23:01:22.915Z,94.50
2022-11-24T23:03:50.826Z,94.50
2022-11-24T23:06:25.620Z,94.50
2022-11-24T23:08:53.172Z,94.40
2022-11-24T23:11:30.708Z,94.40
2022-11-24T23:14:02.576Z,94.40
2022-11-24T23:16:29.438Z,94.50
2022-11-24T23:18:56.578Z,94.40
2022-11-24T23:21:28.664Z,94.40
2022-11-24T23:23:56.394Z,94.40
2022-11-24T23:26:28.445Z,94.40
2022-11-24T23:28:55.565Z,94.40
2022-11-24T23:31:28.710Z,94.50
2022-11-24T23:34:00.316Z,94.50
2022-11-24T23:36:27.892Z,94.50
2022-11-24T23:38:55.021Z,94.50
2022-11-24T23:41:24.880Z,94.50
2022-11-24T23:43:52.417Z,94.40
2022-11-24T23:46:24.318Z,94.40
2022-11-24T23:48:52.869Z,94.40
2022-11-24T23:51:22.825Z,94.40
2022-11-24T23:53:50.644Z,94.40
2022-11-24T23:56:35.785Z,94.40
2022-11-24T23:59:04.527Z,94.40
